sensor_id;sensor_type;location;lat;lon;timestamp;P1;P2;P0
53658;PMS5003;41524;35.624;139.698;2024-01-30T00:00:10;25.00;25.00;
53658;PMS5003;41524;35.624;139.698;2024-01-30T00:05:10;20.00;18.00;
53658;PMS5003;41524;35.624;139.698;2024-01-30T00:10:09;20.00;19.00;
53658;PMS5003;41524;35.624;139.698;2024-01-30T00:15:09;21.00;21.00;
53658;PMS5003;41524;35.624;139.698;2024-01-30T00:20:09;20.00;20.00;
53658;PMS5003;41524;35.624;139.698;2024-01-30T00:25:09;26.00;24.00;
53658;PMS5003;41524;35.624;139.698;2024-01-30T00:30:10;23.00;22.00;
53658;PMS5003;41524;35.624;139.698;2024-01-30T00:35:09;23.00;20.00;
53658;PMS5003;41524;35.624;139.698;2024-01-30T00:40:10;22.00;20.00;
53658;PMS5003;41524;35.624;139.698;2024-01-30T00:45:12;28.00;24.00;
53658;PMS5003;41524;35.624;139.698;2024-01-30T00:50:09;21.00;21.00;
53658;PMS5003;41524;35.624;139.698;2024-01-30T00:55:09;24.00;23.00;
53658;PMS5003;41524;35.624;139.698;2024-01-30T01:00:09;21.00;21.00;
53658;PMS5003;41524;35.624;139.698;2024-01-30T01:05:09;22.00;22.00;
53658;PMS5003;41524;35.624;139.698;2024-01-30T01:10:09;30.00;29.00;
53658;PMS5003;41524;35.624;139.698;2024-01-30T01:15:10;25.00;21.00;
53658;PMS5003;41524;35.624;139.698;2024-01-30T01:20:11;22.00;21.00;
53658;PMS5003;41524;35.624;139.698;2024-01-30T01:25:09;34.00;34.00;
53658;PMS5003;41524;35.624;139.698;2024-01-30T01:30:10;22.00;20.00;
53658;PMS5003;41524;35.624;139.698;2024-01-30T01:35:10;23.00;22.00;
53658;PMS5003;41524;35.624;139.698;2024-01-30T01:40:09;19.00;18.00;
53658;PMS5003;41524;35.624;139.698;2024-01-30T01:45:09;24.00;23.00;
53658;PMS5003;41524;35.624;139.698;2024-01-30T01:50:09;16.00;16.00;
53658;PMS5003;41524;35.624;139.698;2024-01-30T01:55:10;20.00;18.00;
53658;PMS5003;41524;35.624;139.698;2024-01-30T02:00:09;19.00;19.00;
53658;PMS5003;41524;35.624;139.698;2024-01-30T02:05:10;18.00;17.00;
53658;PMS5003;41524;35.624;139.698;2024-01-30T02:10:09;22.00;20.00;
53658;PMS5003;41524;35.624;139.698;2024-01-30T02:15:12;18.00;18.00;
53658;PMS5003;41524;35.624;139.698;2024-01-30T02:20:09;33.00;28.00;
53658;PMS5003;41524;35.624;139.698;2024-01-30T02:25:09;20.00;19.00;
53658;PMS5003;41524;35.624;139.698;2024-01-30T02:30:10;30.00;27.00;
53658;PMS5003;41524;35.624;139.698;2024-01-30T02:35:18;16.00;16.00;
53658;PMS5003;41524;35.624;139.698;2024-01-30T02:40:10;20.00;19.00;
53658;PMS5003;41524;35.624;139.698;2024-01-30T02:45:09;28.00;28.00;
53658;PMS5003;41524;35.624;139.698;2024-01-30T02:50:10;21.00;20.00;
53658;PMS5003;41524;35.624;139.698;2024-01-30T02:55:09;24.00;21.00;
53658;PMS5003;41524;35.624;139.698;2024-01-30T03:00:11;27.00;26.00;
53658;PMS5003;41524;35.624;139.698;2024-01-30T03:05:08;21.00;20.00;
53658;PMS5003;41524;35.624;139.698;2024-01-30T03:10:09;21.00;20.00;
53658;PMS5003;41524;35.624;139.698;2024-01-30T03:15:09;22.00;22.00;
53658;PMS5003;41524;35.624;139.698;2024-01-30T03:20:09;26.00;25.00;
53658;PMS5003;41524;35.624;139.698;2024-01-30T03:25:10;21.00;19.00;
53658;PMS5003;41524;35.624;139.698;2024-01-30T03:30:09;25.00;22.00;
53658;PMS5003;41524;35.624;139.698;2024-01-30T03:35:09;21.00;20.00;
53658;PMS5003;41524;35.624;139.698;2024-01-30T03:40:09;20.00;19.00;
53658;PMS5003;41524;35.624;139.698;2024-01-30T03:45:09;27.00;24.00;
53658;PMS5003;41524;35.624;139.698;2024-01-30T03:50:09;24.00;22.00;
53658;PMS5003;41524;35.624;139.698;2024-01-30T03:55:08;17.00;15.00;
53658;PMS5003;41524;35.624;139.698;2024-01-30T04:00:09;16.00;14.00;
53658;PMS5003;41524;35.624;139.698;2024-01-30T04:05:09;21.00;19.00;
53658;PMS5003;41524;35.624;139.698;2024-01-30T04:10:10;20.00;17.00;
53658;PMS5003;41524;35.624;139.698;2024-01-30T04:15:09;25.00;23.00;
53658;PMS5003;41524;35.624;139.698;2024-01-30T04:20:09;19.00;19.00;
53658;PMS5003;41524;35.624;139.698;2024-01-30T04:25:09;19.00;18.00;
53658;PMS5003;41524;35.624;139.698;2024-01-30T04:30:09;21.00;20.00;
53658;PMS5003;41524;35.624;139.698;2024-01-30T04:35:09;26.00;26.00;
53658;PMS5003;41524;35.624;139.698;2024-01-30T04:40:12;26.00;25.00;
53658;PMS5003;41524;35.624;139.698;2024-01-30T04:45:09;25.00;23.00;
53658;PMS5003;41524;35.624;139.698;2024-01-30T04:50:09;28.00;28.00;
53658;PMS5003;41524;35.624;139.698;2024-01-30T04:55:10;33.00;31.00;
53658;PMS5003;41524;35.624;139.698;2024-01-30T05:00:09;31.00;27.00;
53658;PMS5003;41524;35.624;139.698;2024-01-30T05:05:09;27.00;25.00;
53658;PMS5003;41524;35.624;139.698;2024-01-30T05:10:09;23.00;21.00;
53658;PMS5003;41524;35.624;139.698;2024-01-30T05:15:10;26.00;23.00;
53658;PMS5003;41524;35.624;139.698;2024-01-30T05:20:10;25.00;23.00;
53658;PMS5003;41524;35.624;139.698;2024-01-30T05:25:09;27.00;26.00;
53658;PMS5003;41524;35.624;139.698;2024-01-30T05:30:10;28.00;26.00;
53658;PMS5003;41524;35.624;139.698;2024-01-30T05:35:09;18.00;18.00;
53658;PMS5003;41524;35.624;139.698;2024-01-30T05:40:09;28.00;25.00;
53658;PMS5003;41524;35.624;139.698;2024-01-30T05:45:09;27.00;27.00;
53658;PMS5003;41524;35.624;139.698;2024-01-30T05:50:09;19.00;19.00;
53658;PMS5003;41524;35.624;139.698;2024-01-30T05:55:09;24.00;21.00;
53658;PMS5003;41524;35.624;139.698;2024-01-30T06:00:10;21.00;20.00;
53658;PMS5003;41524;35.624;139.698;2024-01-30T06:05:11;22.00;20.00;
53658;PMS5003;41524;35.624;139.698;2024-01-30T06:10:09;25.00;20.00;
53658;PMS5003;41524;35.624;139.698;2024-01-30T06:15:09;24.00;24.00;
53658;PMS5003;41524;35.624;139.698;2024-01-30T06:20:08;35.00;29.00;
53658;PMS5003;41524;35.624;139.698;2024-01-30T06:25:09;24.00;23.00;
53658;PMS5003;41524;35.624;139.698;2024-01-30T06:30:09;26.00;25.00;
53658;PMS5003;41524;35.624;139.698;2024-01-30T06:35:10;30.00;30.00;
53658;PMS5003;41524;35.624;139.698;2024-01-30T06:40:09;28.00;25.00;
53658;PMS5003;41524;35.624;139.698;2024-01-30T06:45:14;22.00;22.00;
53658;PMS5003;41524;35.624;139.698;2024-01-30T06:50:09;26.00;25.00;
53658;PMS5003;41524;35.624;139.698;2024-01-30T06:55:10;21.00;19.00;
53658;PMS5003;41524;35.624;139.698;2024-01-30T07:00:09;23.00;20.00;
53658;PMS5003;41524;35.624;139.698;2024-01-30T07:05:09;25.00;24.00;
53658;PMS5003;41524;35.624;139.698;2024-01-30T07:10:09;19.00;18.00;
53658;PMS5003;41524;35.624;139.698;2024-01-30T07:15:09;12.00;12.00;
53658;PMS5003;41524;35.624;139.698;2024-01-30T07:20:09;15.00;14.00;
53658;PMS5003;41524;35.624;139.698;2024-01-30T07:25:09;16.00;16.00;
53658;PMS5003;41524;35.624;139.698;2024-01-30T07:30:11;21.00;19.00;
53658;PMS5003;41524;35.624;139.698;2024-01-30T07:35:10;18.00;18.00;
53658;PMS5003;41524;35.624;139.698;2024-01-30T07:40:10;31.00;28.00;
53658;PMS5003;41524;35.624;139.698;2024-01-30T07:45:09;23.00;19.00;
53658;PMS5003;41524;35.624;139.698;2024-01-30T07:50:09;23.00;23.00;
53658;PMS5003;41524;35.624;139.698;2024-01-30T07:55:09;27.00;25.00;
53658;PMS5003;41524;35.624;139.698;2024-01-30T08:00:10;30.00;28.00;
53658;PMS5003;41524;35.624;139.698;2024-01-30T08:05:09;22.00;22.00;
53658;PMS5003;41524;35.624;139.698;2024-01-30T08:10:11;23.00;22.00;
53658;PMS5003;41524;35.624;139.698;2024-01-30T08:15:11;25.00;23.00;
53658;PMS5003;41524;35.624;139.698;2024-01-30T08:20:09;27.00;25.00;
53658;PMS5003;41524;35.624;139.698;2024-01-30T08:25:10;30.00;28.00;
53658;PMS5003;41524;35.624;139.698;2024-01-30T08:30:10;26.00;26.00;
53658;PMS5003;41524;35.624;139.698;2024-01-30T08:35:09;27.00;23.00;
53658;PMS5003;41524;35.624;139.698;2024-01-30T08:40:09;25.00;23.00;
53658;PMS5003;41524;35.624;139.698;2024-01-30T08:45:09;25.00;24.00;
53658;PMS5003;41524;35.624;139.698;2024-01-30T08:50:08;23.00;22.00;
53658;PMS5003;41524;35.624;139.698;2024-01-30T08:55:10;31.00;27.00;
53658;PMS5003;41524;35.624;139.698;2024-01-30T09:00:10;28.00;25.00;
53658;PMS5003;41524;35.624;139.698;2024-01-30T09:05:09;29.00;28.00;
53658;PMS5003;41524;35.624;139.698;2024-01-30T09:10:09;37.00;34.00;
53658;PMS5003;41524;35.624;139.698;2024-01-30T09:15:10;35.00;32.00;
53658;PMS5003;41524;35.624;139.698;2024-01-30T09:20:11;38.00;36.00;
53658;PMS5003;41524;35.624;139.698;2024-01-30T09:25:09;34.00;29.00;
53658;PMS5003;41524;35.624;139.698;2024-01-30T09:30:11;36.00;36.00;
53658;PMS5003;41524;35.624;139.698;2024-01-30T09:35:10;42.00;36.00;
53658;PMS5003;41524;35.624;139.698;2024-01-30T09:40:09;38.00;35.00;
53658;PMS5003;41524;35.624;139.698;2024-01-30T09:45:09;43.00;40.00;
53658;PMS5003;41524;35.624;139.698;2024-01-30T09:50:09;46.00;42.00;
53658;PMS5003;41524;35.624;139.698;2024-01-30T09:55:08;52.00;46.00;
53658;PMS5003;41524;35.624;139.698;2024-01-30T10:00:10;45.00;42.00;
53658;PMS5003;41524;35.624;139.698;2024-01-30T10:05:09;43.00;40.00;
53658;PMS5003;41524;35.624;139.698;2024-01-30T10:10:10;45.00;41.00;
53658;PMS5003;41524;35.624;139.698;2024-01-30T10:15:09;43.00;40.00;
53658;PMS5003;41524;35.624;139.698;2024-01-30T10:20:10;54.00;47.00;
53658;PMS5003;41524;35.624;139.698;2024-01-30T10:25:09;47.00;44.00;
53658;PMS5003;41524;35.624;139.698;2024-01-30T10:30:09;49.00;44.00;
53658;PMS5003;41524;35.624;139.698;2024-01-30T10:35:09;62.00;53.00;
53658;PMS5003;41524;35.624;139.698;2024-01-30T10:40:11;53.00;52.00;
53658;PMS5003;41524;35.624;139.698;2024-01-30T10:45:10;50.00;47.00;
53658;PMS5003;41524;35.624;139.698;2024-01-30T10:50:09;65.00;60.00;
53658;PMS5003;41524;35.624;139.698;2024-01-30T10:55:10;59.00;53.00;
53658;PMS5003;41524;35.624;139.698;2024-01-30T11:00:16;49.00;46.00;
53658;PMS5003;41524;35.624;139.698;2024-01-30T11:05:10;43.00;42.00;
53658;PMS5003;41524;35.624;139.698;2024-01-30T11:10:09;36.00;30.00;
53658;PMS5003;41524;35.624;139.698;2024-01-30T11:15:10;31.00;30.00;
53658;PMS5003;41524;35.624;139.698;2024-01-30T11:20:10;41.00;35.00;
53658;PMS5003;41524;35.624;139.698;2024-01-30T11:25:11;32.00;31.00;
53658;PMS5003;41524;35.624;139.698;2024-01-30T11:30:09;42.00;38.00;
53658;PMS5003;41524;35.624;139.698;2024-01-30T11:35:10;42.00;41.00;
53658;PMS5003;41524;35.624;139.698;2024-01-30T11:40:09;36.00;33.00;
53658;PMS5003;41524;35.624;139.698;2024-01-30T11:45:09;37.00;35.00;
53658;PMS5003;41524;35.624;139.698;2024-01-30T11:50:09;44.00;41.00;
53658;PMS5003;41524;35.624;139.698;2024-01-30T11:55:09;44.00;40.00;
53658;PMS5003;41524;35.624;139.698;2024-01-30T12:00:14;38.00;33.00;
53658;PMS5003;41524;35.624;139.698;2024-01-30T12:05:10;40.00;39.00;
53658;PMS5003;41524;35.624;139.698;2024-01-30T12:10:10;31.00;27.00;
53658;PMS5003;41524;35.624;139.698;2024-01-30T12:15:10;41.00;36.00;
53658;PMS5003;41524;35.624;139.698;2024-01-30T12:20:10;39.00;39.00;
53658;PMS5003;41524;35.624;139.698;2024-01-30T12:25:09;29.00;28.00;
53658;PMS5003;41524;35.624;139.698;2024-01-30T12:30:11;36.00;32.00;
53658;PMS5003;41524;35.624;139.698;2024-01-30T12:35:10;33.00;31.00;
53658;PMS5003;41524;35.624;139.698;2024-01-30T12:40:09;26.00;25.00;
53658;PMS5003;41524;35.624;139.698;2024-01-30T12:45:10;28.00;26.00;
53658;PMS5003;41524;35.624;139.698;2024-01-30T12:50:09;30.00;28.00;
53658;PMS5003;41524;35.624;139.698;2024-01-30T12:55:10;29.00;26.00;
53658;PMS5003;41524;35.624;139.698;2024-01-30T13:00:14;26.00;24.00;
53658;PMS5003;41524;35.624;139.698;2024-01-30T13:05:09;31.00;30.00;
53658;PMS5003;41524;35.624;139.698;2024-01-30T13:10:09;39.00;31.00;
53658;PMS5003;41524;35.624;139.698;2024-01-30T13:15:10;23.00;23.00;
53658;PMS5003;41524;35.624;139.698;2024-01-30T13:20:10;25.00;24.00;
53658;PMS5003;41524;35.624;139.698;2024-01-30T13:25:09;32.00;30.00;
53658;PMS5003;41524;35.624;139.698;2024-01-30T13:30:09;26.00;22.00;
53658;PMS5003;41524;35.624;139.698;2024-01-30T13:35:09;23.00;22.00;
53658;PMS5003;41524;35.624;139.698;2024-01-30T13:40:10;20.00;19.00;
53658;PMS5003;41524;35.624;139.698;2024-01-30T13:45:09;27.00;21.00;
53658;PMS5003;41524;35.624;139.698;2024-01-30T13:50:12;28.00;25.00;
53658;PMS5003;41524;35.624;139.698;2024-01-30T13:55:09;31.00;29.00;
53658;PMS5003;41524;35.624;139.698;2024-01-30T14:00:10;39.00;38.00;
53658;PMS5003;41524;35.624;139.698;2024-01-30T14:05:09;37.00;33.00;
53658;PMS5003;41524;35.624;139.698;2024-01-30T14:10:10;40.00;39.00;
53658;PMS5003;41524;35.624;139.698;2024-01-30T14:15:09;42.00;39.00;
53658;PMS5003;41524;35.624;139.698;2024-01-30T14:20:09;40.00;38.00;
53658;PMS5003;41524;35.624;139.698;2024-01-30T14:25:09;60.00;52.00;
53658;PMS5003;41524;35.624;139.698;2024-01-30T14:30:09;43.00;39.00;
53658;PMS5003;41524;35.624;139.698;2024-01-30T14:35:10;49.00;42.00;
53658;PMS5003;41524;35.624;139.698;2024-01-30T14:40:09;47.00;43.00;
53658;PMS5003;41524;35.624;139.698;2024-01-30T14:45:10;43.00;40.00;
53658;PMS5003;41524;35.624;139.698;2024-01-30T14:50:09;42.00;41.00;
53658;PMS5003;41524;35.624;139.698;2024-01-30T14:55:09;45.00;40.00;
53658;PMS5003;41524;35.624;139.698;2024-01-30T15:00:09;45.00;43.00;
53658;PMS5003;41524;35.624;139.698;2024-01-30T15:05:09;38.00;38.00;
53658;PMS5003;41524;35.624;139.698;2024-01-30T15:10:10;36.00;33.00;
53658;PMS5003;41524;35.624;139.698;2024-01-30T15:15:09;44.00;36.00;
53658;PMS5003;41524;35.624;139.698;2024-01-30T15:20:09;39.00;36.00;
53658;PMS5003;41524;35.624;139.698;2024-01-30T15:25:10;29.00;28.00;
53658;PMS5003;41524;35.624;139.698;2024-01-30T15:30:10;34.00;32.00;
53658;PMS5003;41524;35.624;139.698;2024-01-30T15:35:09;28.00;27.00;
53658;PMS5003;41524;35.624;139.698;2024-01-30T15:40:10;24.00;23.00;
53658;PMS5003;41524;35.624;139.698;2024-01-30T15:45:09;34.00;28.00;
53658;PMS5003;41524;35.624;139.698;2024-01-30T15:50:08;26.00;25.00;
53658;PMS5003;41524;35.624;139.698;2024-01-30T15:55:10;30.00;25.00;
53658;PMS5003;41524;35.624;139.698;2024-01-30T16:00:10;32.00;29.00;
53658;PMS5003;41524;35.624;139.698;2024-01-30T16:05:10;27.00;22.00;
53658;PMS5003;41524;35.624;139.698;2024-01-30T16:10:09;30.00;29.00;
53658;PMS5003;41524;35.624;139.698;2024-01-30T16:15:09;22.00;22.00;
53658;PMS5003;41524;35.624;139.698;2024-01-30T16:20:09;40.00;33.00;
53658;PMS5003;41524;35.624;139.698;2024-01-30T16:25:10;33.00;26.00;
53658;PMS5003;41524;35.624;139.698;2024-01-30T16:30:09;36.00;28.00;
53658;PMS5003;41524;35.624;139.698;2024-01-30T16:35:10;26.00;24.00;
53658;PMS5003;41524;35.624;139.698;2024-01-30T16:40:09;29.00;29.00;
53658;PMS5003;41524;35.624;139.698;2024-01-30T16:45:09;29.00;25.00;
53658;PMS5003;41524;35.624;139.698;2024-01-30T16:50:09;27.00;24.00;
53658;PMS5003;41524;35.624;139.698;2024-01-30T16:55:09;21.00;20.00;
53658;PMS5003;41524;35.624;139.698;2024-01-30T17:00:10;38.00;29.00;
53658;PMS5003;41524;35.624;139.698;2024-01-30T17:05:08;30.00;30.00;
53658;PMS5003;41524;35.624;139.698;2024-01-30T17:10:09;28.00;26.00;
53658;PMS5003;41524;35.624;139.698;2024-01-30T17:15:10;32.00;30.00;
53658;PMS5003;41524;35.624;139.698;2024-01-30T17:20:09;27.00;27.00;
53658;PMS5003;41524;35.624;139.698;2024-01-30T17:25:09;31.00;30.00;
53658;PMS5003;41524;35.624;139.698;2024-01-30T17:30:12;31.00;28.00;
53658;PMS5003;41524;35.624;139.698;2024-01-30T17:35:09;28.00;24.00;
53658;PMS5003;41524;35.624;139.698;2024-01-30T17:40:11;28.00;25.00;
53658;PMS5003;41524;35.624;139.698;2024-01-30T17:45:10;31.00;28.00;
53658;PMS5003;41524;35.624;139.698;2024-01-30T17:50:12;42.00;34.00;
53658;PMS5003;41524;35.624;139.698;2024-01-30T17:55:09;26.00;26.00;
53658;PMS5003;41524;35.624;139.698;2024-01-30T18:00:10;38.00;33.00;
53658;PMS5003;41524;35.624;139.698;2024-01-30T18:05:11;42.00;38.00;
53658;PMS5003;41524;35.624;139.698;2024-01-30T18:10:09;33.00;29.00;
53658;PMS5003;41524;35.624;139.698;2024-01-30T18:15:10;39.00;34.00;
53658;PMS5003;41524;35.624;139.698;2024-01-30T18:20:09;34.00;31.00;
53658;PMS5003;41524;35.624;139.698;2024-01-30T18:25:09;38.00;35.00;
53658;PMS5003;41524;35.624;139.698;2024-01-30T18:30:10;37.00;35.00;
53658;PMS5003;41524;35.624;139.698;2024-01-30T18:35:08;31.00;28.00;
53658;PMS5003;41524;35.624;139.698;2024-01-30T18:40:09;31.00;30.00;
53658;PMS5003;41524;35.624;139.698;2024-01-30T18:45:10;32.00;30.00;
53658;PMS5003;41524;35.624;139.698;2024-01-30T18:50:09;35.00;32.00;
53658;PMS5003;41524;35.624;139.698;2024-01-30T18:55:09;30.00;27.00;
53658;PMS5003;41524;35.624;139.698;2024-01-30T19:00:10;32.00;32.00;
53658;PMS5003;41524;35.624;139.698;2024-01-30T19:05:09;29.00;25.00;
53658;PMS5003;41524;35.624;139.698;2024-01-30T19:10:09;34.00;33.00;
53658;PMS5003;41524;35.624;139.698;2024-01-30T19:15:09;39.00;34.00;
53658;PMS5003;41524;35.624;139.698;2024-01-30T19:20:10;33.00;31.00;
53658;PMS5003;41524;35.624;139.698;2024-01-30T19:25:18;30.00;30.00;
53658;PMS5003;41524;35.624;139.698;2024-01-30T19:30:09;32.00;27.00;
53658;PMS5003;41524;35.624;139.698;2024-01-30T19:35:09;25.00;25.00;
53658;PMS5003;41524;35.624;139.698;2024-01-30T19:40:10;23.00;22.00;
53658;PMS5003;41524;35.624;139.698;2024-01-30T19:45:09;33.00;27.00;
53658;PMS5003;41524;35.624;139.698;2024-01-30T19:50:09;37.00;34.00;
53658;PMS5003;41524;35.624;139.698;2024-01-30T19:55:09;27.00;26.00;
53658;PMS5003;41524;35.624;139.698;2024-01-30T20:00:09;31.00;30.00;
53658;PMS5003;41524;35.624;139.698;2024-01-30T20:05:10;29.00;25.00;
53658;PMS5003;41524;35.624;139.698;2024-01-30T20:10:10;26.00;22.00;
53658;PMS5003;41524;35.624;139.698;2024-01-30T20:15:09;26.00;23.00;
53658;PMS5003;41524;35.624;139.698;2024-01-30T20:20:09;24.00;23.00;
53658;PMS5003;41524;35.624;139.698;2024-01-30T20:25:09;21.00;20.00;
53658;PMS5003;41524;35.624;139.698;2024-01-30T20:30:09;28.00;25.00;
53658;PMS5003;41524;35.624;139.698;2024-01-30T20:35:09;26.00;25.00;
53658;PMS5003;41524;35.624;139.698;2024-01-30T20:40:09;31.00;28.00;
53658;PMS5003;41524;35.624;139.698;2024-01-30T20:45:09;32.00;29.00;
53658;PMS5003;41524;35.624;139.698;2024-01-30T20:50:10;24.00;23.00;
53658;PMS5003;41524;35.624;139.698;2024-01-30T20:55:09;26.00;26.00;
53658;PMS5003;41524;35.624;139.698;2024-01-30T21:00:10;29.00;26.00;
53658;PMS5003;41524;35.624;139.698;2024-01-30T21:05:22;28.00;28.00;
53658;PMS5003;41524;35.624;139.698;2024-01-30T21:10:09;27.00;26.00;
53658;PMS5003;41524;35.624;139.698;2024-01-30T21:15:09;33.00;28.00;
53658;PMS5003;41524;35.624;139.698;2024-01-30T21:20:10;32.00;30.00;
53658;PMS5003;41524;35.624;139.698;2024-01-30T21:25:09;29.00;26.00;
53658;PMS5003;41524;35.624;139.698;2024-01-30T21:30:09;25.00;24.00;
53658;PMS5003;41524;35.624;139.698;2024-01-30T21:35:09;28.00;23.00;
53658;PMS5003;41524;35.624;139.698;2024-01-30T21:40:09;29.00;23.00;
53658;PMS5003;41524;35.624;139.698;2024-01-30T21:45:10;28.00;23.00;
53658;PMS5003;41524;35.624;139.698;2024-01-30T21:50:09;30.00;28.00;
53658;PMS5003;41524;35.624;139.698;2024-01-30T21:55:09;32.00;25.00;
53658;PMS5003;41524;35.624;139.698;2024-01-30T22:00:09;25.00;23.00;
53658;PMS5003;41524;35.624;139.698;2024-01-30T22:05:09;37.00;34.00;
53658;PMS5003;41524;35.624;139.698;2024-01-30T22:10:10;22.00;21.00;
53658;PMS5003;41524;35.624;139.698;2024-01-30T22:15:10;29.00;28.00;
53658;PMS5003;41524;35.624;139.698;2024-01-30T22:20:09;26.00;24.00;
53658;PMS5003;41524;35.624;139.698;2024-01-30T22:25:09;28.00;25.00;
53658;PMS5003;41524;35.624;139.698;2024-01-30T22:30:10;28.00;26.00;
53658;PMS5003;41524;35.624;139.698;2024-01-30T22:35:09;24.00;21.00;
53658;PMS5003;41524;35.624;139.698;2024-01-30T22:40:10;31.00;21.00;
53658;PMS5003;41524;35.624;139.698;2024-01-30T22:45:09;28.00;24.00;
53658;PMS5003;41524;35.624;139.698;2024-01-30T22:50:09;30.00;30.00;
53658;PMS5003;41524;35.624;139.698;2024-01-30T22:55:09;35.00;31.00;
53658;PMS5003;41524;35.624;139.698;2024-01-30T23:00:10;34.00;33.00;
53658;PMS5003;41524;35.624;139.698;2024-01-30T23:05:12;34.00;31.00;
53658;PMS5003;41524;35.624;139.698;2024-01-30T23:10:09;28.00;26.00;
53658;PMS5003;41524;35.624;139.698;2024-01-30T23:15:09;29.00;29.00;
53658;PMS5003;41524;35.624;139.698;2024-01-30T23:20:09;35.00;30.00;
53658;PMS5003;41524;35.624;139.698;2024-01-30T23:25:10;23.00;22.00;
53658;PMS5003;41524;35.624;139.698;2024-01-30T23:30:09;31.00;27.00;
53658;PMS5003;41524;35.624;139.698;2024-01-30T23:35:09;30.00;29.00;
53658;PMS5003;41524;35.624;139.698;2024-01-30T23:40:10;35.00;34.00;
53658;PMS5003;41524;35.624;139.698;2024-01-30T23:45:09;27.00;25.00;
53658;PMS5003;41524;35.624;139.698;2024-01-30T23:50:10;30.00;26.00;
53658;PMS5003;41524;35.624;139.698;2024-01-30T23:55:09;30.00;29.00;
